createdAt,value
2022-09-27T00:00:18.940Z,0
2022-09-27T00:01:18.935Z,0
2022-09-27T00:02:19.249Z,0
2022-09-27T00:03:18.715Z,0
2022-09-27T00:04:18.502Z,0
2022-09-27T00:05:18.763Z,0
2022-09-27T00:06:18.727Z,0
2022-09-27T00:07:18.203Z,0
2022-09-27T00:08:18.449Z,0
2022-09-27T00:09:19.064Z,0
2022-09-27T00:10:18.164Z,0
2022-09-27T00:11:18.159Z,0
2022-09-27T00:12:17.878Z,0
2022-09-27T00:13:17.857Z,0
2022-09-27T00:14:18.617Z,0
2022-09-27T00:15:18.121Z,0
2022-09-27T00:16:19.264Z,0
2022-09-27T00:17:17.808Z,0
2022-09-27T00:18:17.818Z,0
2022-09-27T00:19:18.711Z,0
2022-09-27T00:20:17.774Z,0
2022-09-27T00:21:18.315Z,0
2022-09-27T00:22:18.262Z,0
2022-09-27T00:23:18.246Z,0
2022-09-27T00:24:18.252Z,0
2022-09-27T00:25:17.720Z,0
2022-09-27T00:26:18.225Z,0
2022-09-27T00:27:17.425Z,0
2022-09-27T00:28:18.183Z,0
2022-09-27T00:29:18.476Z,0
2022-09-27T00:30:18.007Z,0
2022-09-27T00:31:18.120Z,0
2022-09-27T00:32:18.483Z,0
2022-09-27T00:33:17.614Z,0
2022-09-27T00:34:18.359Z,0
2022-09-27T00:35:18.365Z,0
2022-09-27T00:36:18.114Z,0
2022-09-27T00:37:18.389Z,0
2022-09-27T00:38:17.825Z,0
2022-09-27T00:39:18.398Z,0
2022-09-27T00:40:24.174Z,0
2022-09-27T00:41:17.691Z,0
2022-09-27T00:42:17.756Z,0
2022-09-27T00:43:17.238Z,0
2022-09-27T00:44:17.475Z,0
2022-09-27T00:45:17.740Z,0
2022-09-27T00:46:17.903Z,0
2022-09-27T00:47:17.433Z,0
2022-09-27T00:48:18.051Z,0
2022-09-27T00:49:17.914Z,0
2022-09-27T00:50:18.181Z,0
2022-09-27T00:51:17.907Z,0
2022-09-27T00:52:17.908Z,0
2022-09-27T00:53:17.895Z,0
2022-09-27T00:54:17.369Z,0
2022-09-27T00:55:18.100Z,0
2022-09-27T00:56:17.330Z,0
2022-09-27T00:57:17.570Z,0
2022-09-27T00:58:18.556Z,0
2022-09-27T00:59:18.177Z,0
2022-09-27T01:00:17.264Z,0
2022-09-27T01:01:18.232Z,0
2022-09-27T01:02:17.803Z,0
2022-09-27T01:03:17.743Z,0
2022-09-27T01:04:17.837Z,0
2022-09-27T01:05:17.456Z,0
2022-09-27T01:06:17.964Z,0
2022-09-27T01:07:17.700Z,0
2022-09-27T01:08:17.689Z,0
2022-09-27T01:09:18.060Z,0
2022-09-27T01:10:17.489Z,0
2022-09-27T01:11:17.141Z,0
2022-09-27T01:12:17.121Z,0
2022-09-27T01:13:17.623Z,0
2022-09-27T01:14:17.359Z,0
2022-09-27T01:15:17.592Z,0
2022-09-27T01:16:18.289Z,0
2022-09-27T01:17:17.559Z,0
2022-09-27T01:18:17.307Z,0
2022-09-27T01:19:17.545Z,0
2022-09-27T01:20:17.894Z,0
2022-09-27T01:21:17.258Z,0
2022-09-27T01:22:17.515Z,0
2022-09-27T01:23:17.498Z,0
2022-09-27T01:24:17.249Z,0
2022-09-27T01:25:17.247Z,0
2022-09-27T01:26:17.221Z,0
2022-09-27T01:27:17.211Z,0
2022-09-27T01:28:16.918Z,0
2022-09-27T01:29:17.364Z,0
2022-09-27T01:30:17.172Z,0
2022-09-27T01:31:17.935Z,0
2022-09-27T01:32:17.128Z,0
2022-09-27T01:33:17.110Z,0
2022-09-27T01:34:16.838Z,0
2022-09-27T01:35:48.964Z,0
2022-09-27T01:36:17.647Z,0
2022-09-27T01:37:16.799Z,0
2022-09-27T01:38:17.310Z,0
2022-09-27T01:39:17.911Z,0
2022-09-27T01:40:17.409Z,0
2022-09-27T01:41:16.791Z,0
2022-09-27T01:42:28.191Z,0
2022-09-27T01:43:16.990Z,0
2022-09-27T01:44:16.714Z,0
2022-09-27T01:45:16.700Z,0
2022-09-27T01:46:18.013Z,0
2022-09-27T01:47:16.944Z,0
2022-09-27T01:48:16.936Z,0
2022-09-27T01:49:17.153Z,0
2022-09-27T01:50:17.158Z,0
2022-09-27T01:51:16.942Z,0
2022-09-27T01:52:16.918Z,0
2022-09-27T01:53:16.602Z,0
2022-09-27T01:54:16.585Z,0
2022-09-27T01:55:17.090Z,0
2022-09-27T01:56:16.816Z,0
2022-09-27T01:57:17.095Z,0
2022-09-27T01:58:17.051Z,0
2022-09-27T01:59:17.334Z,0
2022-09-27T02:00:16.785Z,0
2022-09-27T02:01:17.132Z,0
2022-09-27T02:02:17.427Z,0
2022-09-27T02:03:16.860Z,0
2022-09-27T02:04:16.203Z,0
2022-09-27T02:05:16.705Z,0
2022-09-27T02:06:19.741Z,0
2022-09-27T02:07:17.212Z,0
2022-09-27T02:08:16.974Z,0
2022-09-27T02:09:16.695Z,0
2022-09-27T02:10:16.897Z,0
2022-09-27T02:11:16.367Z,0
2022-09-27T02:12:17.123Z,0
2022-09-27T02:13:16.628Z,0
2022-09-27T02:14:16.836Z,0
2022-09-27T02:15:17.091Z,0
2022-09-27T02:16:17.279Z,0
2022-09-27T02:17:16.547Z,0
2022-09-27T02:18:16.534Z,0
2022-09-27T02:19:16.816Z,0
2022-09-27T02:20:16.518Z,0
2022-09-27T02:21:16.770Z,0
2022-09-27T02:22:16.777Z,0
2022-09-27T02:23:16.497Z,0
2022-09-27T02:24:17.019Z,0
2022-09-27T02:25:16.702Z,0
2022-09-27T02:26:16.204Z,0
2022-09-27T02:27:16.674Z,0
2022-09-27T02:28:16.406Z,0
2022-09-27T02:29:16.875Z,0
2022-09-27T02:30:16.926Z,0
2022-09-27T02:31:17.074Z,0
2022-09-27T02:32:16.353Z,0
2022-09-27T02:33:16.098Z,0
2022-09-27T02:34:16.328Z,0
2022-09-27T02:35:16.586Z,0
2022-09-27T02:36:16.565Z,0
2022-09-27T02:37:16.290Z,0
2022-09-27T02:38:16.310Z,0
2022-09-27T02:39:16.240Z,0
2022-09-27T02:40:16.978Z,0
2022-09-27T02:41:16.759Z,0
2022-09-27T02:42:15.976Z,0
2022-09-27T02:43:15.963Z,0
2022-09-27T02:44:16.459Z,0
2022-09-27T02:45:16.469Z,0
2022-09-27T02:46:16.935Z,0
2022-09-27T02:47:16.170Z,0
2022-09-27T02:48:16.156Z,0
2022-09-27T02:49:16.245Z,0
2022-09-27T02:50:15.867Z,0
2022-09-27T02:51:16.380Z,0
2022-09-27T02:52:15.863Z,0
2022-09-27T02:53:16.615Z,0
2022-09-27T02:54:16.100Z,0
2022-09-27T02:55:16.089Z,0
2022-09-27T02:56:16.353Z,0
2022-09-27T02:57:16.291Z,0
2022-09-27T02:58:16.277Z,0
2022-09-27T02:59:16.218Z,0
2022-09-27T03:00:16.516Z,0
2022-09-27T03:01:16.160Z,0
2022-09-27T03:02:22.924Z,0
2022-09-27T03:03:16.493Z,0
2022-09-27T03:04:15.974Z,0
2022-09-27T03:05:16.197Z,0
2022-09-27T03:06:16.177Z,0
2022-09-27T03:07:15.645Z,0
2022-09-27T03:08:16.142Z,0
2022-09-27T03:09:16.332Z,0
2022-09-27T03:10:15.888Z,0
2022-09-27T03:11:15.873Z,0
2022-09-27T03:12:16.186Z,0
2022-09-27T03:13:15.829Z,0
2022-09-27T03:14:18.759Z,0
2022-09-27T03:15:16.076Z,0
2022-09-27T03:16:15.532Z,0
2022-09-27T03:17:16.502Z,0
2022-09-27T03:18:16.113Z,0
2022-09-27T03:19:15.701Z,0
2022-09-27T03:20:15.475Z,0
2022-09-27T03:21:15.728Z,0
2022-09-27T03:22:15.712Z,0
2022-09-27T03:23:15.439Z,0
2022-09-27T03:24:16.219Z,0
2022-09-27T03:25:15.678Z,0
2022-09-27T03:26:20.122Z,0
2022-09-27T03:27:15.648Z,0
2022-09-27T03:28:15.935Z,0
2022-09-27T03:29:15.328Z,0
2022-09-27T03:30:15.356Z,0
2022-09-27T03:31:16.371Z,0
2022-09-27T03:32:15.844Z,0
2022-09-27T03:49:43.002Z,0
2022-09-27T03:50:42.345Z,0
2022-09-27T03:51:42.328Z,0
2022-09-27T03:52:42.318Z,0
2022-09-27T03:53:42.294Z,0
2022-09-27T03:54:42.287Z,0
2022-09-27T03:55:41.759Z,0
2022-09-27T03:56:42.252Z,0
2022-09-27T03:57:41.975Z,0
2022-09-27T03:58:41.960Z,0
2022-09-27T03:59:42.219Z,0
2022-09-27T04:00:42.193Z,0
2022-09-27T04:01:42.475Z,0
2022-09-27T04:02:42.550Z,0
2022-09-27T04:03:41.897Z,0
2022-09-27T04:04:42.390Z,0
2022-09-27T04:05:42.762Z,0
2022-09-27T04:06:42.369Z,0
2022-09-27T04:07:42.357Z,0
2022-09-27T04:08:42.339Z,0
2022-09-27T04:09:47.409Z,0
2022-09-27T04:10:41.559Z,0
2022-09-27T04:11:42.302Z,0
2022-09-27T04:12:42.283Z,0
2022-09-27T04:13:42.525Z,0
2022-09-27T04:14:41.751Z,0
2022-09-27T04:15:42.495Z,0
2022-09-27T04:16:42.342Z,0
2022-09-27T04:17:42.209Z,0
2022-09-27T04:18:41.687Z,0
2022-09-27T04:19:42.198Z,0
2022-09-27T04:20:41.413Z,0
2022-09-27T04:21:42.574Z,0
2022-09-27T04:22:41.633Z,0
2022-09-27T04:23:42.132Z,0
2022-09-27T04:24:41.607Z,0
2022-09-27T04:25:42.415Z,0
2022-09-27T04:26:42.131Z,0
2022-09-27T04:27:42.357Z,0
2022-09-27T04:28:42.390Z,0
2022-09-27T04:29:42.335Z,0
2022-09-27T04:30:42.007Z,0
2022-09-27T04:31:41.787Z,0
2022-09-27T04:32:42.025Z,0
2022-09-27T04:33:42.288Z,0
2022-09-27T04:34:48.299Z,0
2022-09-27T04:35:41.723Z,0
2022-09-27T04:36:41.707Z,0
2022-09-27T04:37:42.337Z,0
2022-09-27T04:38:42.281Z,0
2022-09-27T04:39:42.246Z,0
2022-09-27T04:40:42.207Z,0
2022-09-27T04:41:41.967Z,0
2022-09-27T04:42:41.697Z,0
2022-09-27T04:43:42.211Z,0
2022-09-27T04:44:42.183Z,0
2022-09-27T04:45:41.719Z,0
2022-09-27T04:46:42.265Z,0
2022-09-27T04:47:41.633Z,0
2022-09-27T04:48:41.878Z,0
2022-09-27T04:49:41.858Z,0
2022-09-27T04:50:45.005Z,0
2022-09-27T04:51:41.848Z,0
2022-09-27T04:52:41.571Z,0
2022-09-27T04:53:42.195Z,0
2022-09-27T04:54:41.791Z,0
2022-09-27T04:55:41.784Z,0
2022-09-27T04:56:41.253Z,0
2022-09-27T04:57:41.759Z,0
2022-09-27T04:58:41.738Z,0
2022-09-27T04:59:42.388Z,0
2022-09-27T05:00:42.889Z,0
2022-09-27T05:01:42.577Z,0
2022-09-27T05:02:42.573Z,0
2022-09-27T05:03:42.349Z,0
2022-09-27T05:04:42.581Z,0
2022-09-27T05:05:42.068Z,0
2022-09-27T05:06:42.046Z,0
2022-09-27T05:07:42.542Z,0
2022-09-27T05:08:42.020Z,0
2022-09-27T05:09:42.908Z,0
2022-09-27T05:10:42.256Z,0
2022-09-27T05:11:42.003Z,0
2022-09-27T05:12:42.739Z,0
2022-09-27T05:13:42.475Z,0
2022-09-27T05:14:42.000Z,5
2022-09-27T05:15:42.687Z,5
2022-09-27T05:16:43.130Z,5
2022-09-27T05:17:42.734Z,5
2022-09-27T05:18:42.673Z,5
2022-09-27T05:19:41.867Z,5
2022-09-27T05:20:42.947Z,10
2022-09-27T05:21:42.164Z,10
2022-09-27T05:22:42.402Z,10
2022-09-27T05:23:47.308Z,10
2022-09-27T05:24:42.397Z,10
2022-09-27T05:25:43.032Z,10
2022-09-27T05:26:42.614Z,10
2022-09-27T05:27:42.088Z,10
2022-09-27T05:28:42.330Z,15
2022-09-27T05:29:42.105Z,15
2022-09-27T05:30:43.119Z,15
2022-09-27T05:31:42.283Z,10
2022-09-27T05:32:42.274Z,10
2022-09-27T05:33:42.284Z,10
2022-09-27T05:34:42.775Z,10
2022-09-27T05:35:48.210Z,10
2022-09-27T05:36:41.963Z,10
2022-09-27T05:37:42.765Z,10
2022-09-27T05:38:42.452Z,10
2022-09-27T05:39:41.930Z,10
2022-09-27T05:40:52.519Z,10
2022-09-27T05:41:43.582Z,15
2022-09-27T05:42:42.658Z,20
2022-09-27T05:43:42.407Z,20
2022-09-27T05:44:42.637Z,25
2022-09-27T05:45:42.542Z,20
2022-09-27T05:46:42.952Z,20
2022-09-27T05:47:42.367Z,25
2022-09-27T05:48:42.672Z,20
2022-09-27T05:49:42.330Z,25
2022-09-27T05:50:42.304Z,30
2022-09-27T05:51:42.284Z,30
2022-09-27T05:52:42.273Z,25
2022-09-27T05:53:42.508Z,30
2022-09-27T05:54:42.503Z,40
2022-09-27T05:55:41.983Z,45
2022-09-27T05:56:42.840Z,50
2022-09-27T05:57:42.236Z,40
2022-09-27T05:58:42.450Z,45
2022-09-27T05:59:41.920Z,45
2022-09-27T06:00:42.418Z,45
2022-09-27T06:01:42.548Z,40
2022-09-27T06:02:42.741Z,35
2022-09-27T06:03:42.382Z,30
2022-09-27T06:04:43.116Z,25
2022-09-27T06:05:45.182Z,30
2022-09-27T06:06:43.337Z,30
2022-09-27T06:07:43.087Z,35
2022-09-27T06:08:43.054Z,30
2022-09-27T06:09:43.039Z,40
2022-09-27T06:10:43.030Z,40
2022-09-27T06:11:47.781Z,50
2022-09-27T06:12:43.558Z,60
2022-09-27T06:13:42.759Z,60
2022-09-27T06:14:43.484Z,65
2022-09-27T06:15:42.953Z,70
2022-09-27T06:16:43.786Z,70
2022-09-27T06:17:42.673Z,70
2022-09-27T06:18:42.912Z,75
2022-09-27T06:19:42.649Z,75
2022-09-27T06:20:42.643Z,65
2022-09-27T06:21:42.895Z,55
2022-09-27T06:22:43.441Z,80
2022-09-27T06:23:43.106Z,90
2022-09-27T06:24:43.097Z,70
2022-09-27T06:25:43.091Z,65
2022-09-27T06:26:43.357Z,70
2022-09-27T06:27:43.118Z,80
2022-09-27T06:28:43.379Z,80
2022-09-27T06:29:43.315Z,75
2022-09-27T06:30:43.368Z,85
2022-09-27T06:31:42.772Z,105
2022-09-27T06:32:42.993Z,110
2022-09-27T06:33:42.983Z,115
2022-09-27T06:34:42.718Z,140
2022-09-27T06:35:42.963Z,140
2022-09-27T06:36:42.458Z,145
2022-09-27T06:37:42.670Z,135
2022-09-27T06:38:42.686Z,130
2022-09-27T06:39:42.910Z,155
2022-09-27T06:40:43.537Z,130
2022-09-27T06:41:42.388Z,140
2022-09-27T06:42:42.633Z,145
2022-09-27T06:43:42.659Z,140
2022-09-27T06:44:43.555Z,120
2022-09-27T06:45:43.188Z,100
2022-09-27T06:46:42.319Z,85
2022-09-27T06:47:42.804Z,105
2022-09-27T06:48:42.544Z,90
2022-09-27T06:49:42.262Z,90
2022-09-27T06:50:43.045Z,65
2022-09-27T06:51:42.498Z,80
2022-09-27T06:52:42.231Z,100
2022-09-27T06:53:42.496Z,85
2022-09-27T06:54:42.726Z,95
2022-09-27T06:55:42.194Z,100
2022-09-27T06:56:42.702Z,95
2022-09-27T06:57:42.179Z,90
2022-09-27T06:58:42.414Z,110
2022-09-27T06:59:42.705Z,100
2022-09-27T07:00:42.707Z,110
2022-09-27T07:01:43.340Z,110
2022-09-27T07:02:42.878Z,115
2022-09-27T07:03:48.095Z,120
2022-09-27T07:04:42.857Z,115
2022-09-27T07:05:42.327Z,130
2022-09-27T07:06:42.057Z,115
2022-09-27T07:07:42.561Z,120
2022-09-27T07:08:42.315Z,120
2022-09-27T07:09:42.549Z,120
2022-09-27T07:10:42.540Z,120
2022-09-27T07:11:42.509Z,130
2022-09-27T07:12:43.170Z,145
2022-09-27T07:13:42.480Z,155
2022-09-27T07:14:42.216Z,160
2022-09-27T07:15:42.500Z,140
2022-09-27T07:16:43.043Z,150
2022-09-27T07:17:42.243Z,150
2022-09-27T07:18:42.445Z,135
2022-09-27T07:19:42.159Z,145
2022-09-27T07:20:42.138Z,165
2022-09-27T07:21:42.383Z,170
2022-09-27T07:22:42.372Z,160
2022-09-27T07:23:42.102Z,160
2022-09-27T07:24:41.841Z,165
2022-09-27T07:25:41.843Z,170
2022-09-27T07:26:42.341Z,170
2022-09-27T07:27:45.339Z,160
2022-09-27T07:28:42.300Z,155
2022-09-27T07:29:42.038Z,165
2022-09-27T07:30:42.619Z,175
2022-09-27T07:31:42.077Z,185
2022-09-27T07:32:42.575Z,180
2022-09-27T07:33:47.832Z,175
2022-09-27T07:34:41.985Z,165
2022-09-27T07:35:42.340Z,150
2022-09-27T07:36:42.205Z,130
2022-09-27T07:37:42.444Z,105
2022-09-27T07:38:41.931Z,95
2022-09-27T07:39:41.676Z,95
2022-09-27T07:40:42.199Z,100
2022-09-27T07:41:41.641Z,105
2022-09-27T07:42:42.134Z,90
2022-09-27T07:43:41.614Z,80
2022-09-27T07:44:42.138Z,100
2022-09-27T07:45:42.801Z,115
2022-09-27T07:46:41.832Z,125
2022-09-27T07:47:42.122Z,145
2022-09-27T07:48:42.121Z,150
2022-09-27T07:49:42.335Z,175
2022-09-27T07:50:41.776Z,190
2022-09-27T07:51:42.024Z,200
2022-09-27T07:52:42.273Z,220
2022-09-27T07:53:41.780Z,225
2022-09-27T07:54:42.280Z,220
2022-09-27T07:55:42.011Z,195
2022-09-27T07:56:41.771Z,155
2022-09-27T07:57:41.478Z,120
2022-09-27T07:58:41.195Z,145
2022-09-27T07:59:41.958Z,155
2022-09-27T08:00:41.947Z,140
2022-09-27T08:01:42.329Z,145
2022-09-27T08:02:41.951Z,150
2022-09-27T08:03:41.942Z,150
2022-09-27T08:04:41.961Z,150
2022-09-27T08:05:41.658Z,140
2022-09-27T08:06:41.630Z,145
2022-09-27T08:07:41.611Z,110
2022-09-27T08:08:41.340Z,125
2022-09-27T08:09:41.583Z,110
2022-09-27T08:10:41.576Z,105
2022-09-27T08:11:42.066Z,155
2022-09-27T08:12:41.301Z,150
2022-09-27T08:13:41.789Z,150
2022-09-27T08:14:53.258Z,160
2022-09-27T08:15:41.516Z,190
2022-09-27T08:16:42.377Z,220
2022-09-27T08:17:41.251Z,220
2022-09-27T08:18:41.523Z,200
2022-09-27T08:19:41.535Z,220
2022-09-27T08:20:41.781Z,205
2022-09-27T08:21:41.727Z,190
2022-09-27T08:22:41.690Z,215
2022-09-27T08:23:41.931Z,205
2022-09-27T08:24:41.414Z,130
2022-09-27T08:25:41.397Z,145
2022-09-27T08:26:41.137Z,170
2022-09-27T08:27:41.367Z,145
2022-09-27T08:28:41.615Z,145
2022-09-27T08:29:41.348Z,140
2022-09-27T08:30:41.339Z,140
2022-09-27T08:31:42.064Z,130
2022-09-27T08:32:41.599Z,115
2022-09-27T08:33:48.341Z,170
2022-09-27T08:34:41.546Z,145
2022-09-27T08:35:41.629Z,105
2022-09-27T08:36:41.434Z,150
2022-09-27T08:37:41.299Z,180
2022-09-27T08:38:41.527Z,120
2022-09-27T08:39:44.440Z,145
2022-09-27T08:40:42.395Z,155
2022-09-27T08:41:41.676Z,105
2022-09-27T08:42:41.450Z,85
2022-09-27T08:43:41.195Z,120
2022-09-27T08:44:40.918Z,160
2022-09-27T08:45:42.005Z,170
2022-09-27T08:46:41.163Z,105
2022-09-27T08:47:40.625Z,85
2022-09-27T08:48:41.398Z,95
2022-09-27T08:49:40.873Z,100
2022-09-27T08:50:47.536Z,115
2022-09-27T08:51:41.109Z,155
2022-09-27T08:52:41.652Z,195
2022-09-27T08:53:41.326Z,230
2022-09-27T08:54:40.546Z,240
2022-09-27T08:55:41.046Z,265
2022-09-27T08:56:41.053Z,265
2022-09-27T08:57:41.292Z,240
2022-09-27T08:58:40.758Z,215
2022-09-27T08:59:41.514Z,210
2022-09-27T09:00:40.992Z,190
2022-09-27T09:01:41.266Z,180
2022-09-27T09:02:41.212Z,185
2022-09-27T09:03:40.691Z,200
2022-09-27T09:04:41.191Z,215
2022-09-27T09:05:41.439Z,215
2022-09-27T09:06:41.255Z,195
2022-09-27T09:07:40.647Z,200
2022-09-27T09:08:53.273Z,210
2022-09-27T09:09:40.915Z,210
2022-09-27T09:10:41.144Z,225
2022-09-27T09:11:41.129Z,220
2022-09-27T09:12:41.376Z,215
2022-09-27T09:13:40.838Z,190
2022-09-27T09:14:41.079Z,150
2022-09-27T09:15:41.063Z,125
2022-09-27T09:16:41.517Z,95
2022-09-27T09:17:40.800Z,105
2022-09-27T09:18:41.283Z,145
2022-09-27T09:19:41.309Z,125
2022-09-27T09:20:40.747Z,110
2022-09-27T09:21:40.996Z,90
2022-09-27T09:22:41.054Z,85
2022-09-27T09:23:40.996Z,75
2022-09-27T09:24:41.036Z,90
2022-09-27T09:25:41.236Z,100
2022-09-27T09:26:40.683Z,110
2022-09-27T09:27:40.948Z,95
2022-09-27T09:28:40.663Z,80
2022-09-27T09:29:41.176Z,80
2022-09-27T09:30:40.635Z,85
2022-09-27T09:31:40.698Z,110
2022-09-27T09:32:40.611Z,120
2022-09-27T09:33:40.870Z,120
2022-09-27T09:34:41.108Z,130
2022-09-27T09:35:40.828Z,125
2022-09-27T09:36:40.564Z,125
2022-09-27T09:37:40.554Z,110
2022-09-27T09:38:40.355Z,85
2022-09-27T09:39:40.789Z,95
2022-09-27T09:40:41.181Z,120
2022-09-27T09:41:40.806Z,115
2022-09-27T09:42:40.769Z,95
2022-09-27T09:43:40.225Z,80
2022-09-27T09:44:40.457Z,100
2022-09-27T09:45:40.828Z,140
2022-09-27T09:46:46.063Z,165
2022-09-27T09:47:40.422Z,190
2022-09-27T09:48:40.951Z,180
2022-09-27T09:49:40.426Z,160
2022-09-27T09:50:40.645Z,125
2022-09-27T09:51:40.647Z,80
2022-09-27T09:52:40.403Z,45
2022-09-27T09:53:40.622Z,35
2022-09-27T09:54:40.138Z,40
2022-09-27T09:55:40.323Z,45
2022-09-27T09:56:40.386Z,40
2022-09-27T09:57:40.836Z,35
2022-09-27T09:58:40.306Z,35
2022-09-27T09:59:40.526Z,65
2022-09-27T10:00:40.191Z,105
2022-09-27T10:01:40.547Z,145
2022-09-27T10:02:40.853Z,180
2022-09-27T10:03:40.485Z,205
2022-09-27T10:04:40.363Z,205
2022-09-27T10:05:40.198Z,195
2022-09-27T10:06:40.774Z,165
2022-09-27T10:07:40.180Z,155
2022-09-27T10:08:40.436Z,195
2022-09-27T10:09:40.419Z,210
2022-09-27T10:10:40.210Z,220
2022-09-27T10:11:40.634Z,235
2022-09-27T10:12:40.679Z,240
2022-09-27T10:13:40.404Z,265
2022-09-27T10:14:39.837Z,315
2022-09-27T10:15:40.328Z,355
2022-09-27T10:16:40.560Z,360
2022-09-27T10:17:40.047Z,345
2022-09-27T10:18:40.096Z,330
2022-09-27T10:19:40.028Z,325
2022-09-27T10:20:40.536Z,310
2022-09-27T10:21:40.261Z,290
2022-09-27T10:22:39.731Z,265
2022-09-27T10:23:40.258Z,240
2022-09-27T10:24:40.233Z,220
2022-09-27T10:25:40.423Z,200
2022-09-27T10:26:41.503Z,185
2022-09-27T10:27:41.422Z,185
2022-09-27T10:28:41.222Z,200
2022-09-27T10:29:46.546Z,215
2022-09-27T10:30:41.137Z,215
2022-09-27T10:31:41.421Z,190
2022-09-27T10:32:40.854Z,155
2022-09-27T10:33:41.356Z,155
2022-09-27T10:34:41.100Z,130
2022-09-27T10:35:40.577Z,135
2022-09-27T10:36:40.861Z,130
2022-09-27T10:37:40.555Z,125
2022-09-27T10:38:40.776Z,115
2022-09-27T10:39:40.518Z,105
2022-09-27T10:40:40.924Z,95
2022-09-27T10:41:40.741Z,90
2022-09-27T10:42:41.185Z,90
2022-09-27T10:43:40.488Z,95
2022-09-27T10:44:41.298Z,100
2022-09-27T10:45:41.097Z,105
2022-09-27T10:46:40.699Z,115
2022-09-27T10:47:41.194Z,120
2022-09-27T10:48:40.426Z,125
2022-09-27T10:49:40.672Z,140
2022-09-27T10:51:05.020Z,140
2022-09-27T10:51:40.883Z,145
2022-09-27T10:52:40.864Z,140
2022-09-27T10:53:40.632Z,140
2022-09-27T10:54:40.588Z,155
2022-09-27T10:55:40.576Z,160
2022-09-27T10:56:40.558Z,155
2022-09-27T10:57:46.735Z,170
2022-09-27T10:58:40.562Z,205
2022-09-27T10:59:41.029Z,240
2022-09-27T11:00:41.377Z,235
2022-09-27T11:01:41.039Z,245
2022-09-27T11:02:40.490Z,260
2022-09-27T11:03:40.733Z,270
2022-09-27T11:04:40.968Z,280
2022-09-27T11:05:40.236Z,255
2022-09-27T11:06:40.704Z,275
2022-09-27T11:07:40.677Z,310
2022-09-27T11:08:40.659Z,305
2022-09-27T11:09:40.397Z,315
2022-09-27T11:10:45.414Z,320
2022-09-27T11:11:40.116Z,320
2022-09-27T11:12:40.618Z,335
2022-09-27T11:13:40.121Z,345
2022-09-27T11:14:40.622Z,350
2022-09-27T11:15:40.580Z,345
2022-09-27T11:16:41.747Z,350
2022-09-27T11:17:40.873Z,360
2022-09-27T11:18:40.280Z,360
2022-09-27T11:19:40.019Z,350
2022-09-27T11:20:40.282Z,345
2022-09-27T11:21:40.516Z,395
2022-09-27T11:22:40.238Z,380
2022-09-27T11:23:40.741Z,360
2022-09-27T11:24:39.988Z,315
2022-09-27T11:25:41.245Z,280
2022-09-27T11:26:40.465Z,245
2022-09-27T11:27:40.191Z,220
2022-09-27T11:28:39.977Z,225
2022-09-27T11:29:39.936Z,195
2022-09-27T11:30:40.684Z,155
2022-09-27T11:31:40.517Z,170
2022-09-27T11:32:40.742Z,250
2022-09-27T11:33:40.409Z,295
2022-09-27T11:34:39.850Z,295
2022-09-27T11:35:40.357Z,265
2022-09-27T11:36:40.593Z,230
2022-09-27T11:37:40.382Z,235
2022-09-27T11:39:07.709Z,245
2022-09-27T11:39:40.300Z,255
2022-09-27T11:40:40.605Z,245
2022-09-27T11:41:40.292Z,205
2022-09-27T11:42:40.280Z,180
2022-09-27T11:43:40.259Z,165
2022-09-27T11:44:40.499Z,160
2022-09-27T11:46:44.229Z,160
2022-09-27T11:46:54.130Z,165
2022-09-27T11:47:54.756Z,180
2022-09-27T11:48:54.071Z,205
2022-09-27T11:49:54.425Z,215
2022-09-27T11:50:54.002Z,225
2022-09-27T11:51:53.740Z,220
2022-09-27T11:52:53.981Z,200
2022-09-27T11:53:53.959Z,185
2022-09-27T11:54:53.699Z,160
2022-09-27T11:55:53.715Z,195
2022-09-27T11:56:53.672Z,240
2022-09-27T11:57:53.916Z,240
2022-09-27T11:58:53.660Z,190
2022-09-27T11:59:54.209Z,145
2022-09-27T12:00:53.882Z,125
2022-09-27T12:01:54.614Z,125
2022-09-27T12:02:53.915Z,155
2022-09-27T12:03:54.161Z,245
2022-09-27T12:04:53.611Z,305
2022-09-27T12:06:10.347Z,285
2022-09-27T12:06:53.297Z,260
2022-09-27T12:07:53.807Z,260
2022-09-27T12:08:53.794Z,285
2022-09-27T12:09:53.775Z,340
2022-09-27T12:10:53.568Z,335
2022-09-27T12:11:53.253Z,280
2022-09-27T12:12:53.543Z,275
2022-09-27T12:13:53.478Z,300
2022-09-27T12:14:53.983Z,300
2022-09-27T12:15:53.828Z,290
2022-09-27T12:16:53.194Z,255
2022-09-27T12:17:53.730Z,220
2022-09-27T12:18:58.786Z,185
2022-09-27T12:19:53.676Z,155
2022-09-27T12:20:53.682Z,125
2022-09-27T12:21:53.664Z,105
2022-09-27T12:23:08.477Z,85
2022-09-27T12:23:53.880Z,80
2022-09-27T12:24:53.240Z,75
2022-09-27T12:25:53.870Z,75
2022-09-27T12:26:53.327Z,80
2022-09-27T12:27:53.336Z,80
2022-09-27T12:28:53.057Z,75
2022-09-27T12:29:53.810Z,80
2022-09-27T12:31:29.928Z,70
2022-09-27T12:31:53.494Z,60
2022-09-27T12:32:53.019Z,40
2022-09-27T12:33:53.832Z,50
2022-09-27T12:34:53.645Z,60
2022-09-27T12:35:53.237Z,75
2022-09-27T12:36:53.505Z,90
2022-09-27T12:37:53.464Z,105
2022-09-27T12:38:53.443Z,115
2022-09-27T12:39:53.498Z,110
2022-09-27T12:40:53.794Z,110
2022-09-27T12:41:53.424Z,135
2022-09-27T12:42:53.163Z,220
2022-09-27T12:43:57.034Z,240
2022-09-27T12:44:58.542Z,225
2022-09-27T12:45:52.859Z,200
2022-09-27T12:46:53.532Z,170
2022-09-27T12:47:53.600Z,135
2022-09-27T12:48:53.071Z,120
2022-09-27T12:49:55.478Z,120
2022-09-27T12:50:53.109Z,135
2022-09-27T12:51:53.285Z,160
2022-09-27T12:52:53.379Z,165
2022-09-27T12:53:53.126Z,165
2022-09-27T12:54:53.508Z,160
2022-09-27T12:55:52.985Z,155
2022-09-27T12:56:53.237Z,135
2022-09-27T12:57:53.221Z,120
2022-09-27T12:58:53.461Z,105
2022-09-27T12:59:52.933Z,95
2022-09-27T13:00:53.561Z,105
2022-09-27T13:01:53.568Z,105
2022-09-27T13:03:29.061Z,110
2022-09-27T13:03:52.888Z,115
2022-09-27T13:04:53.324Z,120
2022-09-27T13:05:52.921Z,130
2022-09-27T13:06:52.935Z,140
2022-09-27T13:07:53.153Z,160
2022-09-27T13:08:58.971Z,200
2022-09-27T13:09:52.811Z,240
2022-09-27T13:10:52.795Z,295
2022-09-27T13:11:52.534Z,335
2022-09-27T13:12:53.040Z,365
2022-09-27T13:13:52.772Z,380
2022-09-27T13:14:53.019Z,380
2022-09-27T13:15:53.472Z,365
2022-09-27T13:16:52.743Z,350
2022-09-27T13:17:52.979Z,335
2022-09-27T13:18:53.154Z,320
2022-09-27T13:19:52.797Z,310
2022-09-27T13:20:52.438Z,290
2022-09-27T13:21:53.317Z,265
2022-09-27T13:22:52.972Z,215
2022-09-27T13:23:52.904Z,180
2022-09-27T13:24:52.708Z,155
2022-09-27T13:25:58.885Z,140
2022-09-27T13:26:52.386Z,130
2022-09-27T13:27:52.639Z,120
2022-09-27T13:28:52.637Z,115
2022-09-27T13:29:52.359Z,110
2022-09-27T13:30:52.678Z,110
2022-09-27T13:31:52.825Z,110
2022-09-27T13:32:52.844Z,120
2022-09-27T13:33:53.098Z,130
2022-09-27T13:34:52.817Z,150
2022-09-27T13:35:52.949Z,165
2022-09-27T13:36:53.048Z,185
2022-09-27T13:37:53.084Z,205
2022-09-27T13:38:53.073Z,220
2022-09-27T13:39:52.491Z,225
2022-09-27T13:40:53.097Z,215
2022-09-27T13:41:52.488Z,200
2022-09-27T13:42:52.521Z,185
2022-09-27T13:43:52.230Z,165
2022-09-27T13:44:52.460Z,140
2022-09-27T13:45:52.942Z,130
2022-09-27T13:46:58.538Z,115
2022-09-27T13:47:52.674Z,110
2022-09-27T13:48:52.161Z,110
2022-09-27T13:49:52.379Z,110
2022-09-27T13:50:52.631Z,105
2022-09-27T13:51:52.614Z,105
2022-09-27T13:52:52.100Z,105
2022-09-27T13:53:52.652Z,100
2022-09-27T13:54:52.369Z,100
2022-09-27T13:55:52.838Z,100
2022-09-27T13:56:52.335Z,100
2022-09-27T13:57:52.802Z,100
2022-09-27T13:58:52.024Z,100
2022-09-27T13:59:57.749Z,100
2022-09-27T14:00:53.194Z,100
2022-09-27T14:01:53.238Z,90
2022-09-27T14:02:52.230Z,90
2022-09-27T14:03:52.469Z,100
2022-09-27T14:04:52.043Z,130
2022-09-27T14:05:52.234Z,135
2022-09-27T14:06:51.933Z,110
2022-09-27T14:07:52.429Z,105
2022-09-27T14:08:51.651Z,130
2022-09-27T14:09:52.478Z,130
2022-09-27T14:10:52.453Z,165
2022-09-27T14:11:52.132Z,180
2022-09-27T14:12:52.498Z,190
2022-09-27T14:13:52.380Z,205
2022-09-27T14:14:51.830Z,270
2022-09-27T14:15:52.817Z,210
2022-09-27T14:16:52.624Z,155
2022-09-27T14:17:52.060Z,135
2022-09-27T14:18:52.293Z,145
2022-09-27T14:19:51.779Z,145
2022-09-27T14:20:52.397Z,150
2022-09-27T14:21:51.769Z,165
2022-09-27T14:22:53.668Z,155
2022-09-27T14:23:51.846Z,145
2022-09-27T14:24:51.980Z,185
2022-09-27T14:25:52.013Z,225
2022-09-27T14:26:52.566Z,255
2022-09-27T14:27:52.457Z,210